createdAt,value
2019-06-20T00:01:13.426Z,63.70
2019-06-20T00:03:40.801Z,63.80
2019-06-20T00:06:08.159Z,63.90
2019-06-20T00:08:35.518Z,64.10
2019-06-20T00:11:03.375Z,64.00
2019-06-20T00:13:30.722Z,64.10
2019-06-20T00:15:58.164Z,64.40
2019-06-20T00:18:25.526Z,63.70
2019-06-20T00:20:52.899Z,64.00
2019-06-20T00:23:20.291Z,64.10
2019-06-20T00:25:47.708Z,64.40
2019-06-20T00:28:15.038Z,64.50
2019-06-20T00:30:42.441Z,64.60
2019-06-20T00:33:10.166Z,64.80
2019-06-20T00:35:37.536Z,65.20
2019-06-20T00:38:04.942Z,65.70
2019-06-20T00:40:32.285Z,66.30
2019-06-20T00:43:15.912Z,67.50
2019-06-20T00:45:29.491Z,69.90
2019-06-20T00:47:57.278Z,71.70
2019-06-20T00:50:24.803Z,73.20
2019-06-20T00:52:52.212Z,74.60
2019-06-20T00:55:19.567Z,75.40
2019-06-20T00:57:47.290Z,75.40
2019-06-20T01:00:14.923Z,75.80
2019-06-20T01:02:42.375Z,78.10
2019-06-20T01:05:10.438Z,78.40
2019-06-20T01:07:38.048Z,78.00
2019-06-20T01:10:06.089Z,78.90
2019-06-20T01:12:33.408Z,79.30
2019-06-20T01:15:00.732Z,79.20
2019-06-20T01:17:28.113Z,77.90
2019-06-20T01:19:58.197Z,79.40
2019-06-20T01:22:24.653Z,79.90
2019-06-20T01:24:52.459Z,80.20
2019-06-20T01:27:20.200Z,80.00
2019-06-20T01:29:47.563Z,79.50
2019-06-20T01:32:14.872Z,79.70
2019-06-20T01:34:42.230Z,80.00
2019-06-20T01:37:09.501Z,80.30
2019-06-20T01:39:36.844Z,80.60
2019-06-20T01:42:04.203Z,80.80
2019-06-20T01:44:31.968Z,80.70
2019-06-20T01:46:59.284Z,80.80
2019-06-20T01:49:26.614Z,80.90
2019-06-20T01:51:54.101Z,81.40
2019-06-20T01:54:21.478Z,81.10
2019-06-20T01:56:48.863Z,79.60
2019-06-20T01:59:16.201Z,80.70
2019-06-20T02:01:43.553Z,81.50
2019-06-20T02:04:10.983Z,82.00
2019-06-20T02:06:38.385Z,82.00
2019-06-20T02:09:07.637Z,82.50
2019-06-20T02:11:34.956Z,82.30
2019-06-20T02:14:07.211Z,81.80
2019-06-20T02:16:31.495Z,81.60
2019-06-20T02:18:59.122Z,81.20
2019-06-20T02:21:26.500Z,81.10
2019-06-20T02:23:53.816Z,81.20
2019-06-20T02:26:21.234Z,82.50
2019-06-20T02:28:48.551Z,82.80
2019-06-20T02:31:15.902Z,82.10
2019-06-20T02:33:43.296Z,83.10
2019-06-20T02:36:11.093Z,83.20
2019-06-20T02:38:38.791Z,83.20
2019-06-20T02:41:06.199Z,83.20
2019-06-20T02:43:33.608Z,83.20
2019-06-20T02:46:00.921Z,82.80
2019-06-20T02:48:28.718Z,83.50
2019-06-20T02:50:56.128Z,83.90
2019-06-20T02:53:23.522Z,82.60
2019-06-20T02:55:50.830Z,82.50
2019-06-20T02:58:18.492Z,83.20
2019-06-20T03:00:56.213Z,83.40
2019-06-20T03:03:24.434Z,83.70
2019-06-20T03:05:53.047Z,83.30
2019-06-20T03:08:20.402Z,83.50
2019-06-20T03:10:47.773Z,83.20
2019-06-20T03:13:15.234Z,83.00
2019-06-20T03:15:42.562Z,83.10
2019-06-20T03:18:09.922Z,83.40
2019-06-20T03:20:37.196Z,83.50
2019-06-20T03:23:04.568Z,84.10
2019-06-20T03:25:31.972Z,83.80
2019-06-20T03:27:59.276Z,84.20
2019-06-20T03:30:26.828Z,84.50
2019-06-20T03:32:54.221Z,85.00
2019-06-20T03:35:21.640Z,84.50
2019-06-20T03:37:50.271Z,84.40
2019-06-20T03:40:17.824Z,84.10
2019-06-20T03:42:45.538Z,84.60
2019-06-20T03:45:13.199Z,84.00
2019-06-20T03:47:40.591Z,83.70
2019-06-20T03:50:08.723Z,83.70
2019-06-20T03:52:36.040Z,83.50
2019-06-20T03:55:04.168Z,84.30
2019-06-20T03:57:31.582Z,84.20
2019-06-20T03:59:59.084Z,84.50
2019-06-20T04:02:26.459Z,84.50
2019-06-20T04:04:53.784Z,84.50
2019-06-20T04:07:21.171Z,84.60
2019-06-20T04:09:48.506Z,84.70
2019-06-20T04:12:15.932Z,84.20
2019-06-20T04:14:43.231Z,84.30
2019-06-20T04:17:10.526Z,84.70
2019-06-20T04:19:37.827Z,84.80
2019-06-20T04:22:05.165Z,84.80
2019-06-20T04:24:32.527Z,84.70
2019-06-20T04:26:59.824Z,85.20
2019-06-20T04:29:27.129Z,85.00
2019-06-20T04:31:54.466Z,84.60
2019-06-20T04:34:21.769Z,84.60
2019-06-20T04:36:49.242Z,84.90
2019-06-20T04:39:19.504Z,84.30
2019-06-20T04:41:45.728Z,83.40
2019-06-20T04:44:12.995Z,83.60
2019-06-20T04:46:48.765Z,85.00
2019-06-20T04:49:19.517Z,84.60
2019-06-20T04:51:45.333Z,83.90
2019-06-20T04:54:12.692Z,83.90
2019-06-20T04:56:39.998Z,83.50
2019-06-20T04:59:07.422Z,83.80
2019-06-20T05:01:35.173Z,82.80
2019-06-20T05:04:02.536Z,82.00
2019-06-20T05:06:29.929Z,80.80
2019-06-20T05:08:57.312Z,80.40
2019-06-20T05:11:24.715Z,81.30
2019-06-20T05:13:52.054Z,79.80
2019-06-20T05:16:19.319Z,79.40
2019-06-20T05:18:46.679Z,80.10
2019-06-20T05:21:14.111Z,80.80
2019-06-20T05:23:41.525Z,81.20
2019-06-20T05:26:08.896Z,81.00
2019-06-20T05:28:36.215Z,80.70
2019-06-20T05:31:03.516Z,79.70
2019-06-20T05:33:30.799Z,79.80
2019-06-20T05:35:58.187Z,79.30
2019-06-20T05:38:25.525Z,80.00
2019-06-20T05:40:52.836Z,79.50
2019-06-20T05:43:20.297Z,79.70
2019-06-20T05:45:48.767Z,80.30
2019-06-20T05:48:16.469Z,78.60
2019-06-20T05:50:44.011Z,78.60
2019-06-20T05:53:11.400Z,80.30
2019-06-20T05:55:38.746Z,81.60
2019-06-20T05:58:06.175Z,81.40
2019-06-20T06:00:33.906Z,80.80
2019-06-20T06:03:01.361Z,79.80
2019-06-20T06:05:28.788Z,78.90
2019-06-20T06:07:56.115Z,79.30
2019-06-20T06:10:23.564Z,79.30
2019-06-20T06:12:50.958Z,79.00
2019-06-20T06:15:18.547Z,79.10
2019-06-20T06:17:45.954Z,79.80
2019-06-20T06:20:13.484Z,79.90
2019-06-20T06:22:44.388Z,78.10
2019-06-20T06:25:10.167Z,76.90
2019-06-20T06:27:37.619Z,78.50
2019-06-20T06:30:05.757Z,79.60
2019-06-20T06:32:40.172Z,79.20
2019-06-20T06:35:02.719Z,78.90
2019-06-20T06:37:30.018Z,79.50
2019-06-20T06:39:57.330Z,79.10
2019-06-20T06:42:24.669Z,78.60
2019-06-20T06:44:52.042Z,75.30
2019-06-20T06:47:19.524Z,75.70
2019-06-20T06:49:46.962Z,77.20
2019-06-20T06:52:14.410Z,78.30
2019-06-20T06:54:41.949Z,79.40
2019-06-20T06:57:09.393Z,79.40
2019-06-20T06:59:36.800Z,79.00
2019-06-20T07:02:04.124Z,79.20
2019-06-20T07:04:31.515Z,78.80
2019-06-20T07:06:58.895Z,77.70
2019-06-20T07:09:26.229Z,78.00
2019-06-20T07:11:53.586Z,77.60
2019-06-20T07:14:20.996Z,76.60
2019-06-20T07:16:59.756Z,77.50
2019-06-20T07:19:18.133Z,76.70
2019-06-20T07:21:45.582Z,77.30
2019-06-20T07:24:13.278Z,77.40
2019-06-20T07:26:40.683Z,75.80
2019-06-20T07:29:08.219Z,76.10
2019-06-20T07:31:35.705Z,77.00
2019-06-20T07:34:03.287Z,78.40
2019-06-20T07:36:30.966Z,77.90
2019-06-20T07:38:58.435Z,75.80
2019-06-20T07:41:25.885Z,74.20
2019-06-20T07:43:53.454Z,74.60
2019-06-20T07:46:21.022Z,73.50
2019-06-20T07:48:48.520Z,73.50
2019-06-20T07:51:15.950Z,72.60
2019-06-20T07:53:43.324Z,70.60
2019-06-20T07:56:11.170Z,70.50
2019-06-20T07:58:38.599Z,69.90
2019-06-20T08:01:06.330Z,69.00
2019-06-20T08:03:33.776Z,68.60
2019-06-20T08:06:01.277Z,69.00
2019-06-20T08:08:28.963Z,68.70
2019-06-20T08:10:57.256Z,67.70
2019-06-20T08:13:24.744Z,68.60
2019-06-20T08:15:52.203Z,70.10
2019-06-20T08:18:19.669Z,70.00
2019-06-20T08:20:47.064Z,67.70
2019-06-20T08:23:14.399Z,67.70
2019-06-20T08:25:41.782Z,65.20
2019-06-20T08:28:09.269Z,65.40
2019-06-20T08:30:36.657Z,66.00
2019-06-20T08:33:09.895Z,65.50
2019-06-20T08:35:33.525Z,63.00
2019-06-20T08:38:01.363Z,64.10
2019-06-20T08:40:32.968Z,65.60
2019-06-20T08:43:01.950Z,64.70
2019-06-20T08:45:31.685Z,63.60
2019-06-20T08:48:00.094Z,64.00
2019-06-20T08:50:28.058Z,62.90
2019-06-20T08:52:56.626Z,63.30
2019-06-20T08:55:25.296Z,62.70
2019-06-20T08:57:52.779Z,62.40
2019-06-20T09:00:21.770Z,64.00
2019-06-20T09:02:49.572Z,62.30
2019-06-20T09:05:17.889Z,63.30
2019-06-20T09:07:45.323Z,61.90
2019-06-20T09:10:14.598Z,63.40
2019-06-20T09:12:41.947Z,64.90
2019-06-20T09:15:09.884Z,63.30
2019-06-20T09:17:37.412Z,63.30
2019-06-20T09:20:05.586Z,64.20
2019-06-20T09:22:33.016Z,64.20
2019-06-20T09:25:00.838Z,64.50
2019-06-20T09:27:28.268Z,66.30
2019-06-20T09:29:56.261Z,64.10
2019-06-20T09:32:23.807Z,65.20
2019-06-20T09:34:52.727Z,63.60
2019-06-20T09:37:20.504Z,63.30
2019-06-20T09:39:47.957Z,61.10
2019-06-20T09:42:15.769Z,62.30
2019-06-20T09:44:43.499Z,61.50
2019-06-20T09:47:10.913Z,60.40
2019-06-20T09:49:38.410Z,62.20
2019-06-20T09:52:05.839Z,61.80
2019-06-20T09:54:33.297Z,61.90
2019-06-20T09:57:00.925Z,62.10
2019-06-20T09:59:28.460Z,62.00
2019-06-20T10:01:58.550Z,61.70
2019-06-20T10:04:25.561Z,60.90
2019-06-20T10:06:54.424Z,59.60
2019-06-20T10:09:21.966Z,58.70
2019-06-20T10:11:50.124Z,59.60
2019-06-20T10:14:18.087Z,60.60
2019-06-20T10:16:50.317Z,60.00
2019-06-20T10:19:15.435Z,59.80
2019-06-20T10:21:42.979Z,61.70
2019-06-20T10:24:10.487Z,60.40
2019-06-20T10:26:38.045Z,59.40
2019-06-20T10:29:05.447Z,59.60
2019-06-20T10:31:33.302Z,58.90
2019-06-20T10:34:00.770Z,58.00
2019-06-20T10:36:28.281Z,60.00
2019-06-20T10:38:56.853Z,60.30
2019-06-20T10:41:24.424Z,58.30
2019-06-20T10:43:51.882Z,58.00
2019-06-20T10:46:19.671Z,57.00
2019-06-20T10:48:48.009Z,56.60
2019-06-20T10:51:33.186Z,57.20
2019-06-20T10:54:00.974Z,56.80
2019-06-20T10:56:29.579Z,56.60
2019-06-20T10:58:57.140Z,57.10
2019-06-20T11:01:24.729Z,56.00
2019-06-20T11:03:52.234Z,56.50
2019-06-20T11:06:19.670Z,55.20
2019-06-20T11:08:47.291Z,54.80
2019-06-20T11:11:14.786Z,55.70
2019-06-20T11:13:42.235Z,56.90
2019-06-20T11:16:09.665Z,57.10
2019-06-20T11:18:38.377Z,54.70
2019-06-20T11:21:06.481Z,55.50
2019-06-20T11:23:33.946Z,54.20
2019-06-20T11:26:01.387Z,56.20
2019-06-20T11:28:28.777Z,56.50
2019-06-20T11:31:00.414Z,54.30
2019-06-20T11:33:26.262Z,55.70
2019-06-20T11:35:54.076Z,53.90
2019-06-20T11:38:21.504Z,53.90
2019-06-20T11:40:49.204Z,54.10
2019-06-20T11:43:16.632Z,54.80
2019-06-20T11:45:44.070Z,52.80
2019-06-20T11:48:11.470Z,52.60
2019-06-20T11:50:40.001Z,51.60
2019-06-20T11:53:07.514Z,51.60
2019-06-20T11:55:34.899Z,52.10
2019-06-20T11:58:02.243Z,53.30
2019-06-20T12:00:30.047Z,54.50
2019-06-20T12:02:57.470Z,53.90
2019-06-20T12:05:25.310Z,53.90
2019-06-20T12:07:52.945Z,53.70
2019-06-20T12:10:21.508Z,52.60
2019-06-20T12:12:49.310Z,54.10
2019-06-20T12:15:17.330Z,55.30
2019-06-20T12:17:45.394Z,54.60
2019-06-20T12:20:14.952Z,53.40
2019-06-20T12:22:43.240Z,53.30
2019-06-20T12:25:12.298Z,51.60
2019-06-20T12:27:40.813Z,51.20
2019-06-20T12:30:11.270Z,48.40
2019-06-20T12:32:39.130Z,45.90
2019-06-20T12:35:08.165Z,45.70
2019-06-20T12:37:35.821Z,45.10
2019-06-20T12:40:03.618Z,45.00
2019-06-20T12:42:31.053Z,46.80
2019-06-20T12:44:58.730Z,48.40
2019-06-20T12:47:26.195Z,50.00
2019-06-20T12:49:53.552Z,52.70
2019-06-20T12:52:21.145Z,53.60
2019-06-20T12:54:49.181Z,55.00
2019-06-20T12:57:16.706Z,55.20
2019-06-20T12:59:44.581Z,56.20
2019-06-20T13:02:12.407Z,56.60
2019-06-20T13:04:39.986Z,56.60
2019-06-20T13:07:07.432Z,57.80
2019-06-20T13:09:34.799Z,57.70
2019-06-20T13:12:02.254Z,58.70
2019-06-20T13:14:29.827Z,57.50
2019-06-20T13:16:57.225Z,57.30
2019-06-20T13:19:24.603Z,58.30
2019-06-20T13:21:52.147Z,58.00
2019-06-20T13:24:19.673Z,58.60
2019-06-20T13:26:48.904Z,57.90
2019-06-20T13:29:16.298Z,57.90
2019-06-20T13:31:59.333Z,59.20
2019-06-20T13:34:13.406Z,59.10
2019-06-20T13:36:41.288Z,59.70
2019-06-20T13:39:10.104Z,60.20
2019-06-20T13:41:39.405Z,60.80
2019-06-20T13:44:06.652Z,61.20
2019-06-20T13:46:34.405Z,61.80
2019-06-20T13:49:02.062Z,61.40
2019-06-20T13:51:29.408Z,62.00
2019-06-20T13:53:56.866Z,61.50
2019-06-20T13:56:24.421Z,62.20
2019-06-20T13:58:51.968Z,63.20
2019-06-20T14:01:19.559Z,63.60
2019-06-20T14:03:48.366Z,64.30
2019-06-20T14:06:16.486Z,64.40
2019-06-20T14:08:44.804Z,64.20
2019-06-20T14:11:13.111Z,64.00
2019-06-20T14:13:41.618Z,63.60
2019-06-20T14:16:10.498Z,63.40
2019-06-20T14:18:37.943Z,64.00
2019-06-20T14:21:05.518Z,63.70
2019-06-20T14:23:33.234Z,63.80
2019-06-20T14:26:01.093Z,62.90
2019-06-20T14:28:28.651Z,62.30
2019-06-20T14:30:57.839Z,62.70
2019-06-20T14:33:25.511Z,61.30
2019-06-20T14:35:54.724Z,61.00
2019-06-20T14:38:22.630Z,59.00
2019-06-20T14:40:50.037Z,59.00
2019-06-20T14:43:17.501Z,59.60
2019-06-20T14:45:46.751Z,60.10
2019-06-20T14:48:14.459Z,58.50
2019-06-20T14:50:43.830Z,58.50
2019-06-20T14:53:12.179Z,56.90
2019-06-20T14:55:39.552Z,56.70
2019-06-20T14:58:06.979Z,54.20
2019-06-20T15:00:34.717Z,53.40
2019-06-20T15:03:02.264Z,52.60
2019-06-20T15:05:30.011Z,51.00
2019-06-20T15:07:57.574Z,50.90
2019-06-20T15:10:25.677Z,52.50
2019-06-20T15:12:53.777Z,52.90
2019-06-20T15:15:22.449Z,54.80
2019-06-20T15:17:53.702Z,55.70
2019-06-20T15:20:20.480Z,55.60
2019-06-20T15:22:49.294Z,52.50
2019-06-20T15:25:17.894Z,46.80
2019-06-20T15:27:47.288Z,41.00
2019-06-20T15:30:15.865Z,37.90
2019-06-20T15:32:55.739Z,36.70
2019-06-20T15:35:13.647Z,35.10
2019-06-20T15:37:41.176Z,34.50
2019-06-20T15:40:10.108Z,34.00
2019-06-20T15:42:37.558Z,36.40
2019-06-20T15:45:06.530Z,38.70
2019-06-20T15:47:34.744Z,40.30
2019-06-20T15:50:02.524Z,42.60
2019-06-20T15:52:30.271Z,45.40
2019-06-20T15:54:57.743Z,48.00
2019-06-20T15:57:25.570Z,49.70
2019-06-20T15:59:52.978Z,51.70
2019-06-20T16:02:21.383Z,53.50
2019-06-20T16:04:49.334Z,52.90
2019-06-20T16:07:17.445Z,53.90
2019-06-20T16:09:45.771Z,56.10
2019-06-20T16:12:14.066Z,54.70
2019-06-20T16:14:42.110Z,54.60
2019-06-20T16:17:10.487Z,55.80
2019-06-20T16:19:38.891Z,56.50
2019-06-20T16:22:06.837Z,58.80
2019-06-20T16:24:34.256Z,59.50
2019-06-20T16:27:01.708Z,58.10
2019-06-20T16:29:29.588Z,57.60
2019-06-20T16:31:56.964Z,58.30
2019-06-20T16:34:24.497Z,59.60
2019-06-20T16:36:52.076Z,57.90
2019-06-20T16:39:19.504Z,58.80
2019-06-20T16:41:46.922Z,58.60
2019-06-20T16:44:14.389Z,59.70
2019-06-20T16:46:41.935Z,60.50
2019-06-20T16:49:09.356Z,61.20
2019-06-20T16:51:36.776Z,60.80
2019-06-20T16:54:04.280Z,59.70
2019-06-20T16:56:31.693Z,60.40
2019-06-20T16:58:59.595Z,60.70
2019-06-20T17:01:27.287Z,57.70
2019-06-20T17:03:54.771Z,55.70
2019-06-20T17:06:22.259Z,54.60
2019-06-20T17:08:49.701Z,54.00
2019-06-20T17:11:17.190Z,54.30
2019-06-20T17:13:44.788Z,56.20
2019-06-20T17:16:12.372Z,55.30
2019-06-20T17:18:40.370Z,54.90
2019-06-20T17:21:07.984Z,55.40
2019-06-20T17:23:35.425Z,55.50
2019-06-20T17:26:03.177Z,55.80
2019-06-20T17:28:30.898Z,56.30
2019-06-20T17:30:58.490Z,56.70
2019-06-20T17:33:25.995Z,57.30
2019-06-20T17:35:53.755Z,55.30
2019-06-20T17:38:24.803Z,55.70
2019-06-20T17:40:52.283Z,55.60
2019-06-20T17:43:19.809Z,56.40
2019-06-20T17:45:47.362Z,58.20
2019-06-20T17:48:15.171Z,59.00
2019-06-20T17:50:42.794Z,59.30
2019-06-20T17:53:10.473Z,58.90
2019-06-20T17:55:37.922Z,59.60
2019-06-20T17:58:05.414Z,59.20
2019-06-20T18:00:33.211Z,60.90
2019-06-20T18:03:00.682Z,60.10
2019-06-20T18:05:28.168Z,59.50
2019-06-20T18:07:55.527Z,59.90
2019-06-20T18:10:24.036Z,60.30
2019-06-20T18:12:51.651Z,60.80
2019-06-20T18:15:19.322Z,60.20
2019-06-20T18:17:47.179Z,60.30
2019-06-20T18:20:16.269Z,60.70
2019-06-20T18:22:43.943Z,60.10
2019-06-20T18:25:11.704Z,60.90
2019-06-20T18:27:39.533Z,61.00
2019-06-20T18:30:08.008Z,61.60
2019-06-20T18:32:35.839Z,61.60
2019-06-20T18:35:04.268Z,61.80
2019-06-20T18:37:32.003Z,61.70
2019-06-20T18:39:59.613Z,62.20
2019-06-20T18:42:27.090Z,64.00
2019-06-20T18:44:54.537Z,64.70
2019-06-20T18:47:22.136Z,65.70
2019-06-20T18:49:49.982Z,66.10
2019-06-20T18:52:18.129Z,66.10
2019-06-20T18:54:45.702Z,66.60
2019-06-20T18:57:13.127Z,67.40
2019-06-20T18:59:40.683Z,68.10
2019-06-20T19:02:08.496Z,68.10
2019-06-20T19:04:46.204Z,68.20
2019-06-20T19:07:05.655Z,68.90
2019-06-20T19:09:33.125Z,68.90
2019-06-20T19:12:01.009Z,69.20
2019-06-20T19:14:28.979Z,65.70
2019-06-20T19:16:56.476Z,66.70
2019-06-20T19:19:24.006Z,70.00
2019-06-20T19:23:55.331Z,74.30
2019-06-20T19:26:21.990Z,77.60
2019-06-20T19:28:49.488Z,80.80
2019-06-20T19:31:17.269Z,82.30
2019-06-20T19:33:44.934Z,83.20
2019-06-20T19:36:12.814Z,84.60
2019-06-20T19:38:40.252Z,85.80
2019-06-20T19:41:07.813Z,89.60
2019-06-20T19:43:35.386Z,89.00
2019-06-20T19:46:03.149Z,88.20
2019-06-20T19:48:30.826Z,89.20
2019-06-20T19:50:58.333Z,90.60
2019-06-20T19:53:26.158Z,89.30
2019-06-20T19:55:53.726Z,89.70
2019-06-20T19:58:21.347Z,89.60
2019-06-20T20:00:50.199Z,88.80
2019-06-20T20:03:18.470Z,89.70
2019-06-20T20:05:46.551Z,89.20
2019-06-20T20:08:14.215Z,90.10
2019-06-20T20:10:43.880Z,88.90
2019-06-20T20:13:15.331Z,88.30
2019-06-20T20:15:43.138Z,89.00
2019-06-20T20:18:10.674Z,89.00
2019-06-20T20:20:38.220Z,89.00
2019-06-20T20:23:05.753Z,88.80
2019-06-20T20:25:33.260Z,89.00
2019-06-20T20:28:02.226Z,88.60
2019-06-20T20:30:30.068Z,89.40
2019-06-20T20:33:01.890Z,89.00
2019-06-20T20:35:35.321Z,88.40
2019-06-20T20:37:57.642Z,88.90
2019-06-20T20:40:25.912Z,89.00
2019-06-20T20:42:53.368Z,89.00
2019-06-20T20:45:22.088Z,89.10
2019-06-20T20:47:49.581Z,89.50
2019-06-20T20:50:18.483Z,88.60
2019-06-20T20:52:45.958Z,88.30
2019-06-20T20:55:14.157Z,88.00
2019-06-20T20:57:42.200Z,87.70
2019-06-20T21:00:12.459Z,88.20
2019-06-20T21:02:40.045Z,87.30
2019-06-20T21:05:07.790Z,87.60
2019-06-20T21:07:35.306Z,87.90
2019-06-20T21:10:03.415Z,88.10
2019-06-20T21:12:30.841Z,88.20
2019-06-20T21:14:58.341Z,88.40
2019-06-20T21:17:25.850Z,88.40
2019-06-20T21:19:53.603Z,89.00
2019-06-20T21:22:21.004Z,89.40
2019-06-20T21:24:50.518Z,89.60
2019-06-20T21:27:17.881Z,89.60
2019-06-20T21:29:45.324Z,89.20
2019-06-20T21:32:12.823Z,89.10
2019-06-20T21:34:40.334Z,88.80
2019-06-20T21:37:07.782Z,88.80
2019-06-20T21:39:38.641Z,88.30
2019-06-20T21:42:04.603Z,88.00
2019-06-20T21:44:32.034Z,88.00
2019-06-20T21:46:59.873Z,88.40
2019-06-20T21:49:27.737Z,88.80
2019-06-20T21:51:55.247Z,88.30
2019-06-20T21:54:22.677Z,88.30
2019-06-20T21:56:52.638Z,88.40
2019-06-20T21:59:20.124Z,88.60
2019-06-20T22:01:48.487Z,88.10
2019-06-20T22:04:16.101Z,88.50
2019-06-20T22:06:44.066Z,88.90
2019-06-20T22:09:11.568Z,88.90
2019-06-20T22:11:39.001Z,87.90
2019-06-20T22:14:06.386Z,86.80
2019-06-20T22:16:33.786Z,87.40
2019-06-20T22:19:01.226Z,87.80
2019-06-20T22:21:28.695Z,88.30
2019-06-20T22:23:56.092Z,87.50
2019-06-20T22:26:23.455Z,87.20
2019-06-20T22:28:50.910Z,87.30
2019-06-20T22:31:18.258Z,87.40
2019-06-20T22:33:45.702Z,87.80
2019-06-20T22:36:13.044Z,87.70
2019-06-20T22:38:40.536Z,88.10
2019-06-20T22:41:07.960Z,88.30
2019-06-20T22:43:35.300Z,88.30
2019-06-20T22:46:02.711Z,87.10
2019-06-20T22:48:30.022Z,87.00
2019-06-20T22:50:57.402Z,87.30
2019-06-20T22:53:25.198Z,88.30
2019-06-20T22:55:52.539Z,88.10
2019-06-20T22:58:19.882Z,87.70
2019-06-20T23:00:47.229Z,87.80
2019-06-20T23:03:14.625Z,87.50
2019-06-20T23:05:41.906Z,87.60
2019-06-20T23:08:09.266Z,87.70
2019-06-20T23:10:36.706Z,87.50
2019-06-20T23:13:04.232Z,87.90
2019-06-20T23:15:31.593Z,88.00
2019-06-20T23:17:59.018Z,88.40
2019-06-20T23:20:26.806Z,88.10
2019-06-20T23:22:54.159Z,88.00
2019-06-20T23:25:21.496Z,87.70
2019-06-20T23:27:48.893Z,87.80
2019-06-20T23:30:17.299Z,87.90
2019-06-20T23:32:44.596Z,88.30
2019-06-20T23:35:12.086Z,88.60
2019-06-20T23:37:39.421Z,88.10
2019-06-20T23:40:07.713Z,87.80
2019-06-20T23:42:35.140Z,87.30
2019-06-20T23:45:02.509Z,86.80
2019-06-20T23:47:29.890Z,87.40
2019-06-20T23:49:58.533Z,87.40
2019-06-20T23:52:27.955Z,87.90
2019-06-20T23:54:55.378Z,87.90
2019-06-20T23:57:22.804Z,88.20
2019-06-20T23:59:50.147Z,87.50
